createdAt,value
2018-01-13T00:01:44.701Z,39.13
2018-01-13T00:04:12.868Z,37.07
2018-01-13T00:06:41.043Z,39.03
2018-01-13T00:09:09.227Z,35.60
2018-01-13T00:11:37.403Z,39.27
2018-01-13T00:14:05.658Z,35.93
2018-01-13T00:16:33.821Z,36.37
2018-01-13T00:19:01.992Z,41.80
2018-01-13T00:21:30.194Z,40.47
2018-01-13T00:23:58.363Z,39.80
2018-01-13T00:26:26.522Z,41.30
2018-01-13T00:28:54.689Z,37.07
2018-01-13T00:31:23.620Z,38.97
2018-01-13T00:33:51.785Z,44.53
2018-01-13T00:36:19.948Z,40.03
2018-01-13T00:38:48.148Z,42.70
2018-01-13T00:41:17.095Z,39.70
2018-01-13T00:43:46.053Z,43.27
2018-01-13T00:46:14.230Z,40.43
2018-01-13T00:48:42.394Z,42.10
2018-01-13T00:51:10.562Z,41.97
2018-01-13T00:53:38.731Z,46.73
2018-01-13T00:56:06.911Z,44.33
2018-01-13T00:58:35.095Z,42.93
2018-01-13T01:01:03.302Z,44.17
2018-01-13T01:03:32.242Z,47.87
2018-01-13T01:06:00.408Z,43.63
2018-01-13T01:08:28.575Z,44.30
2018-01-13T01:10:56.788Z,54.97
2018-01-13T01:13:24.954Z,37.47
2018-01-13T01:15:53.119Z,38.53
2018-01-13T01:18:21.328Z,40.77
2018-01-13T01:20:49.497Z,35.00
2018-01-13T01:23:17.662Z,40.43
2018-01-13T01:25:45.856Z,36.60
2018-01-13T01:28:14.028Z,37.87
2018-01-13T01:30:42.188Z,41.13
2018-01-13T01:33:10.359Z,39.03
2018-01-13T01:35:38.562Z,38.43
2018-01-13T01:38:07.501Z,39.30
2018-01-13T01:40:35.714Z,41.40
2018-01-13T01:43:03.889Z,38.90
2018-01-13T01:45:32.090Z,36.33
2018-01-13T01:48:01.024Z,40.57
2018-01-13T01:50:29.186Z,34.10
2018-01-13T01:52:57.354Z,34.13
2018-01-13T01:55:25.514Z,40.00
2018-01-13T01:57:53.679Z,32.47
2018-01-13T02:00:22.645Z,32.30
2018-01-13T02:02:50.809Z,32.30
2018-01-13T02:05:19.765Z,39.93
2018-01-13T02:07:47.942Z,29.10
2018-01-13T02:10:16.101Z,34.73
2018-01-13T02:12:44.264Z,32.90
2018-01-13T02:15:13.197Z,32.00
2018-01-13T02:17:41.358Z,30.40
2018-01-13T02:20:09.617Z,30.70
2018-01-13T02:22:37.788Z,32.27
2018-01-13T02:25:05.960Z,27.80
2018-01-13T02:27:34.165Z,27.23
2018-01-13T02:30:02.349Z,27.80
2018-01-13T02:32:30.532Z,29.80
2018-01-13T02:34:58.694Z,26.27
2018-01-13T02:37:26.854Z,25.00
2018-01-13T02:39:55.078Z,26.07
2018-01-13T02:42:23.255Z,27.60
2018-01-13T02:44:51.414Z,25.40
2018-01-13T02:47:19.592Z,21.40
2018-01-13T02:49:47.778Z,19.80
2018-01-13T02:52:15.945Z,22.83
2018-01-13T02:54:44.122Z,22.10
2018-01-13T02:57:12.321Z,32.20
2018-01-13T02:59:41.245Z,38.17
2018-01-13T03:02:09.397Z,29.60
2018-01-13T03:04:37.592Z,22.87
2018-01-13T03:07:05.757Z,19.37
2018-01-13T03:09:33.914Z,20.60
2018-01-13T03:12:02.077Z,17.37
2018-01-13T03:14:31.011Z,17.43
2018-01-13T03:16:59.169Z,18.37
2018-01-13T03:19:27.329Z,17.53
2018-01-13T03:21:55.503Z,18.40
2018-01-13T03:24:23.692Z,18.67
2018-01-13T03:26:51.854Z,18.27
2018-01-13T03:29:20.793Z,16.90
2018-01-13T03:31:48.986Z,16.80
2018-01-13T03:34:17.156Z,18.17
2018-01-13T03:36:45.313Z,20.73
2018-01-13T03:39:13.514Z,17.73
2018-01-13T03:41:41.709Z,16.20
2018-01-13T03:44:10.639Z,15.13
2018-01-13T03:46:38.825Z,16.83
2018-01-13T03:49:07.028Z,14.53
2018-01-13T03:51:35.201Z,18.60
2018-01-13T03:54:03.362Z,20.30
2018-01-13T03:56:31.531Z,18.50
2018-01-13T03:58:59.699Z,17.93
2018-01-13T04:01:27.858Z,16.53
2018-01-13T04:03:56.040Z,17.53
2018-01-13T04:06:24.234Z,14.33
2018-01-13T04:08:52.437Z,15.40
2018-01-13T04:11:20.617Z,15.80
2018-01-13T04:13:49.561Z,17.80
2018-01-13T04:16:17.733Z,17.77
2018-01-13T04:18:45.899Z,15.27
2018-01-13T04:21:14.075Z,15.87
2018-01-13T04:23:42.250Z,15.10
2018-01-13T04:26:10.429Z,16.27
2018-01-13T04:28:38.588Z,17.87
2018-01-13T04:31:06.778Z,18.43
2018-01-13T04:33:34.955Z,17.63
2018-01-13T04:36:03.143Z,18.03
2018-01-13T04:38:31.306Z,18.13
2018-01-13T04:40:59.473Z,18.90
2018-01-13T04:43:27.630Z,19.23
2018-01-13T04:45:55.797Z,20.67
2018-01-13T04:48:23.955Z,16.87
2018-01-13T04:50:52.888Z,18.20
2018-01-13T04:53:21.055Z,18.53
2018-01-13T04:55:49.233Z,18.93
2018-01-13T04:58:17.384Z,21.00
2018-01-13T05:00:45.546Z,17.80
2018-01-13T05:03:14.481Z,20.33
2018-01-13T05:05:42.637Z,19.40
2018-01-13T05:08:10.799Z,18.60
2018-01-13T05:10:38.971Z,24.03
2018-01-13T05:13:07.897Z,19.07
2018-01-13T05:15:36.090Z,18.77
2018-01-13T05:18:04.262Z,19.80
2018-01-13T05:20:32.422Z,19.93
2018-01-13T05:23:00.594Z,19.50
2018-01-13T05:25:28.797Z,17.43
2018-01-13T05:27:56.961Z,18.90
2018-01-13T05:30:25.145Z,17.27
2018-01-13T05:32:53.334Z,20.13
2018-01-13T05:35:21.498Z,19.13
2018-01-13T05:37:49.658Z,17.63
2018-01-13T05:40:17.823Z,18.30
2018-01-13T05:42:45.985Z,17.27
2018-01-13T05:45:14.151Z,20.70
2018-01-13T05:47:42.346Z,17.57
2018-01-13T05:50:10.518Z,19.93
2018-01-13T05:52:38.688Z,15.27
2018-01-13T05:55:06.854Z,14.90
2018-01-13T05:57:35.017Z,17.60
2018-01-13T06:00:03.206Z,14.53
2018-01-13T06:02:31.362Z,13.30
2018-01-13T06:04:59.553Z,17.50
2018-01-13T06:07:27.737Z,14.00
2018-01-13T06:09:55.943Z,15.80
2018-01-13T06:12:24.111Z,14.70
2018-01-13T06:14:52.269Z,17.17
2018-01-13T06:17:20.433Z,19.60
2018-01-13T06:19:48.605Z,18.03
2018-01-13T06:22:16.776Z,15.70
2018-01-13T06:24:44.934Z,16.13
2018-01-13T06:27:13.095Z,17.60
2018-01-13T06:29:42.050Z,16.40
2018-01-13T06:32:10.207Z,13.57
2018-01-13T06:34:38.373Z,15.40
2018-01-13T06:37:06.550Z,17.83
2018-01-13T06:39:34.714Z,14.80
2018-01-13T06:42:02.880Z,16.67
2018-01-13T06:44:31.117Z,16.70
2018-01-13T06:46:59.270Z,17.80
2018-01-13T06:49:27.425Z,18.17
2018-01-13T06:51:55.601Z,14.63
2018-01-13T06:54:23.788Z,14.37
2018-01-13T06:56:51.958Z,14.80
2018-01-13T06:59:20.129Z,19.07
2018-01-13T07:01:48.301Z,17.93
2018-01-13T07:04:16.466Z,19.93
2018-01-13T07:06:44.665Z,20.27
2018-01-13T07:09:12.825Z,20.20
2018-01-13T07:11:41.005Z,20.40
2018-01-13T07:14:09.171Z,24.00
2018-01-13T07:16:37.366Z,20.53
2018-01-13T07:19:05.531Z,18.70
2018-01-13T07:21:33.701Z,23.50
2018-01-13T07:24:01.884Z,20.80
2018-01-13T07:26:30.061Z,23.70
2018-01-13T07:28:58.233Z,21.50
2018-01-13T07:31:26.395Z,19.00
2018-01-13T07:33:54.590Z,20.87
2018-01-13T07:36:22.774Z,23.47
2018-01-13T07:38:50.941Z,21.17
2018-01-13T07:41:19.103Z,21.43
2018-01-13T07:43:47.265Z,22.23
2018-01-13T07:46:15.436Z,22.87
2018-01-13T07:48:43.597Z,18.87
2018-01-13T07:51:11.758Z,19.93
2018-01-13T07:53:39.921Z,21.07
2018-01-13T07:56:08.082Z,20.03
2018-01-13T07:58:37.021Z,21.93
2018-01-13T08:01:05.176Z,20.20
2018-01-13T08:03:33.349Z,21.40
2018-01-13T08:06:01.535Z,22.13
2018-01-13T08:08:29.755Z,20.43
2018-01-13T08:10:57.927Z,21.63
2018-01-13T08:13:26.086Z,20.27
2018-01-13T08:15:54.254Z,18.70
2018-01-13T08:18:22.427Z,20.23
2018-01-13T08:20:50.623Z,21.70
2018-01-13T08:23:18.793Z,21.50
2018-01-13T08:25:46.960Z,21.40
2018-01-13T08:28:15.153Z,20.67
2018-01-13T08:30:43.329Z,19.70
2018-01-13T08:33:11.506Z,24.40
2018-01-13T08:35:39.676Z,22.80
2018-01-13T08:38:07.870Z,23.00
2018-01-13T08:40:36.810Z,23.33
2018-01-13T08:43:04.975Z,23.57
2018-01-13T08:45:33.145Z,21.87
2018-01-13T08:48:01.319Z,21.03
2018-01-13T08:50:29.479Z,23.33
2018-01-13T08:52:57.637Z,22.43
2018-01-13T08:55:26.572Z,18.70
2018-01-13T08:57:54.781Z,21.23
2018-01-13T09:00:22.962Z,22.90
2018-01-13T09:02:51.170Z,21.80
2018-01-13T09:05:19.333Z,17.40
2018-01-13T09:07:48.262Z,15.53
2018-01-13T09:10:17.319Z,17.77
2018-01-13T09:12:46.255Z,19.00
2018-01-13T09:15:14.418Z,15.30
2018-01-13T09:17:42.577Z,14.60
2018-01-13T09:20:10.748Z,16.33
2018-01-13T09:22:38.917Z,17.67
2018-01-13T09:25:07.074Z,19.70
2018-01-13T09:27:36.034Z,17.70
2018-01-13T09:30:04.214Z,20.90
2018-01-13T09:32:32.507Z,19.97
2018-01-13T09:35:00.800Z,18.60
2018-01-13T09:37:29.735Z,22.33
2018-01-13T09:39:57.911Z,23.37
2018-01-13T09:42:26.876Z,24.03
2018-01-13T09:44:55.056Z,22.27
2018-01-13T09:47:23.242Z,22.07
2018-01-13T09:49:51.414Z,22.60
2018-01-13T09:52:19.622Z,24.10
2018-01-13T09:54:47.792Z,22.63
2018-01-13T09:57:15.987Z,21.70
2018-01-13T09:59:44.190Z,27.40
2018-01-13T10:02:13.149Z,26.10
2018-01-13T10:04:41.329Z,28.97
2018-01-13T10:07:09.522Z,35.43
2018-01-13T10:09:38.489Z,31.47
2018-01-13T10:12:06.692Z,27.37
2018-01-13T10:14:35.657Z,27.57
2018-01-13T10:17:03.847Z,25.77
2018-01-13T10:19:32.071Z,27.10
2018-01-13T10:22:00.333Z,27.27
2018-01-13T10:24:28.645Z,24.00
2018-01-13T10:26:56.862Z,26.90
2018-01-13T10:29:25.849Z,27.23
2018-01-13T10:31:54.835Z,25.33
2018-01-13T10:34:23.055Z,27.07
2018-01-13T10:36:51.243Z,22.23
2018-01-13T10:39:19.443Z,24.57
2018-01-13T10:41:47.623Z,27.33
2018-01-13T10:44:15.806Z,26.33
2018-01-13T10:46:44.066Z,25.33
2018-01-13T10:49:12.221Z,22.40
2018-01-13T10:51:40.529Z,24.50
2018-01-13T10:54:09.587Z,28.63
2018-01-13T10:56:37.789Z,26.87
2018-01-13T10:59:05.963Z,25.40
2018-01-13T11:01:34.171Z,21.80
2018-01-13T11:04:03.114Z,21.20
2018-01-13T11:06:31.316Z,24.30
2018-01-13T11:08:59.517Z,21.40
2018-01-13T11:11:28.503Z,32.40
2018-01-13T11:13:57.466Z,20.27
2018-01-13T11:16:25.639Z,21.30
2018-01-13T11:18:53.835Z,24.57
2018-01-13T11:21:22.064Z,18.63
2018-01-13T11:23:50.234Z,21.57
2018-01-13T11:26:18.403Z,19.07
2018-01-13T11:28:46.571Z,21.63
2018-01-13T11:31:14.747Z,19.27
2018-01-13T11:33:42.911Z,174.67
2018-01-13T11:36:11.905Z,62.90
2018-01-13T11:38:40.862Z,25.43
2018-01-13T11:41:09.082Z,19.80
2018-01-13T11:43:37.282Z,22.30
2018-01-13T11:46:05.527Z,17.07
2018-01-13T11:48:33.737Z,21.50
2018-01-13T11:51:01.943Z,21.30
2018-01-13T11:53:30.127Z,19.40
2018-01-13T11:55:58.333Z,22.03
2018-01-13T11:58:26.502Z,29.17
2018-01-13T12:00:54.736Z,26.57
2018-01-13T12:03:22.922Z,20.97
2018-01-13T12:05:51.104Z,19.63
2018-01-13T12:08:19.306Z,21.03
2018-01-13T12:10:47.523Z,18.90
2018-01-13T12:13:16.080Z,20.73
2018-01-13T12:15:44.305Z,23.80
2018-01-13T12:18:12.560Z,21.47
2018-01-13T12:20:40.739Z,20.87
2018-01-13T12:23:08.922Z,23.60
2018-01-13T12:25:37.115Z,22.17
2018-01-13T12:28:06.084Z,21.20
2018-01-13T12:30:34.275Z,22.80
2018-01-13T12:33:02.474Z,20.37
2018-01-13T12:35:31.419Z,24.30
2018-01-13T12:37:59.590Z,24.93
2018-01-13T12:40:27.780Z,25.27
2018-01-13T12:42:55.947Z,25.40
2018-01-13T12:45:24.139Z,26.13
2018-01-13T12:47:52.302Z,28.07
2018-01-13T12:50:20.494Z,23.00
2018-01-13T12:52:48.674Z,21.30
2018-01-13T12:55:19.033Z,20.77
2018-01-13T12:57:47.235Z,22.23
2018-01-13T13:00:15.402Z,21.13
2018-01-13T13:02:43.568Z,21.17
2018-01-13T13:05:11.743Z,24.20
2018-01-13T13:07:39.921Z,24.63
2018-01-13T13:10:08.105Z,25.10
2018-01-13T13:12:36.302Z,26.57
2018-01-13T13:15:04.463Z,24.13
2018-01-13T13:17:33.424Z,22.77
2018-01-13T13:20:01.671Z,26.37
2018-01-13T13:22:30.609Z,23.40
2018-01-13T13:24:58.774Z,22.37
2018-01-13T13:27:26.982Z,25.10
2018-01-13T13:29:55.160Z,22.13
2018-01-13T13:32:23.319Z,23.93
2018-01-13T13:34:51.488Z,23.53
2018-01-13T13:37:19.657Z,23.07
2018-01-13T13:39:47.842Z,36.00
2018-01-13T13:42:16.034Z,50.60
2018-01-13T13:44:44.235Z,34.57
2018-01-13T13:47:13.185Z,27.33
2018-01-13T13:49:41.372Z,27.80
2018-01-13T13:52:09.579Z,28.97
2018-01-13T13:54:38.826Z,24.53
2018-01-13T13:57:12.516Z,25.73
2018-01-13T13:59:41.568Z,27.30
2018-01-13T14:02:09.746Z,25.03
2018-01-13T14:04:38.719Z,25.70
2018-01-13T14:07:07.214Z,26.57
2018-01-13T14:09:38.061Z,24.00
2018-01-13T14:12:07.033Z,26.30
2018-01-13T14:14:35.559Z,23.43
2018-01-13T14:17:05.916Z,26.83
2018-01-13T14:19:36.027Z,30.80
2018-01-13T14:22:04.542Z,23.80
2018-01-13T14:24:33.819Z,27.23
2018-01-13T14:27:07.184Z,28.07
2018-01-13T14:29:35.906Z,24.97
2018-01-13T14:32:04.136Z,24.47
2018-01-13T14:34:33.573Z,24.33
2018-01-13T14:37:04.885Z,25.13
2018-01-13T14:39:33.822Z,27.90
2018-01-13T14:42:02.014Z,28.67
2018-01-13T14:44:30.178Z,25.40
2018-01-13T14:46:58.385Z,46.23
2018-01-13T14:49:26.565Z,31.20
2018-01-13T14:51:54.729Z,33.90
2018-01-13T14:54:22.898Z,28.83
2018-01-13T14:56:51.088Z,33.90
2018-01-13T14:59:20.060Z,25.87
2018-01-13T15:01:48.241Z,25.40
2018-01-13T15:04:16.418Z,25.50
2018-01-13T15:06:44.637Z,25.13
2018-01-13T15:09:12.891Z,24.40
2018-01-13T15:11:41.040Z,24.43
2018-01-13T15:14:09.231Z,26.90
2018-01-13T15:16:38.178Z,25.63
2018-01-13T15:19:06.359Z,25.87
2018-01-13T15:21:34.527Z,25.90
2018-01-13T15:24:02.742Z,23.13
2018-01-13T15:26:30.927Z,26.17
2018-01-13T15:29:00.679Z,26.70
2018-01-13T15:31:28.872Z,25.93
2018-01-13T15:33:57.072Z,26.50
2018-01-13T15:36:25.263Z,23.73
2018-01-13T15:38:55.431Z,28.80
2018-01-13T15:41:23.631Z,26.30
2018-01-13T15:43:51.829Z,29.10
2018-01-13T15:46:20.010Z,21.80
2018-01-13T15:48:48.950Z,25.37
2018-01-13T15:51:17.106Z,25.77
2018-01-13T15:53:45.285Z,21.63
2018-01-13T15:56:13.459Z,24.10
2018-01-13T15:58:41.640Z,23.13
2018-01-13T16:01:09.814Z,20.80
2018-01-13T16:03:38.002Z,21.30
2018-01-13T16:06:06.185Z,21.33
2018-01-13T16:08:34.378Z,24.80
2018-01-13T16:11:02.565Z,24.57
2018-01-13T16:13:30.738Z,25.43
2018-01-13T16:15:58.918Z,21.10
2018-01-13T16:18:27.907Z,20.50
2018-01-13T16:20:56.085Z,19.90
2018-01-13T16:23:24.270Z,24.00
2018-01-13T16:25:53.232Z,21.50
2018-01-13T16:28:21.400Z,20.47
2018-01-13T16:30:49.612Z,19.40
2018-01-13T16:33:18.596Z,20.90
2018-01-13T16:35:47.643Z,20.07
2018-01-13T16:38:15.832Z,19.47
2018-01-13T16:40:44.022Z,20.50
2018-01-13T16:43:12.194Z,18.60
2018-01-13T16:45:40.391Z,19.27
2018-01-13T16:48:09.332Z,20.10
2018-01-13T16:50:37.541Z,16.40
2018-01-13T16:53:05.757Z,20.07
2018-01-13T16:55:33.970Z,16.00
2018-01-13T16:58:02.145Z,18.10
2018-01-13T17:00:30.330Z,19.03
2018-01-13T17:02:58.498Z,18.23
2018-01-13T17:05:26.688Z,18.30
2018-01-13T17:07:54.851Z,22.30
2018-01-13T17:10:23.028Z,21.47
2018-01-13T17:12:51.213Z,20.77
2018-01-13T17:15:19.395Z,21.93
2018-01-13T17:17:47.631Z,37.07
2018-01-13T17:20:15.815Z,23.73
2018-01-13T17:22:43.985Z,36.33
2018-01-13T17:25:12.156Z,24.33
2018-01-13T17:27:40.377Z,20.40
2018-01-13T17:30:08.658Z,20.83
2018-01-13T17:32:37.659Z,20.93
2018-01-13T17:35:06.635Z,17.57
2018-01-13T17:37:34.794Z,16.90
2018-01-13T17:40:03.777Z,17.57
2018-01-13T17:42:31.962Z,17.80
2018-01-13T17:45:00.134Z,15.57
2018-01-13T17:47:28.317Z,21.53
2018-01-13T17:49:56.490Z,17.00
2018-01-13T17:52:24.676Z,17.37
2018-01-13T17:54:52.850Z,20.70
2018-01-13T17:57:21.020Z,17.33
2018-01-13T17:59:49.217Z,19.90
2018-01-13T18:02:18.150Z,17.53
2018-01-13T18:04:46.328Z,19.23
2018-01-13T18:07:15.291Z,19.63
2018-01-13T18:09:43.455Z,17.20
2018-01-13T18:12:12.429Z,16.67
2018-01-13T18:14:40.622Z,18.37
2018-01-13T18:17:09.572Z,21.70
2018-01-13T18:19:37.798Z,17.47
2018-01-13T18:22:06.744Z,20.60
2018-01-13T18:24:35.037Z,19.90
2018-01-13T18:27:03.247Z,17.70
2018-01-13T18:29:31.426Z,21.00
2018-01-13T18:31:59.651Z,17.47
2018-01-13T18:34:27.862Z,21.27
2018-01-13T18:36:56.799Z,18.80
2018-01-13T18:39:24.968Z,18.77
2018-01-13T18:41:53.153Z,18.33
2018-01-13T18:44:21.342Z,17.63
2018-01-13T18:46:49.570Z,23.07
2018-01-13T18:49:17.774Z,20.47
2018-01-13T18:51:45.950Z,21.13
2018-01-13T18:54:14.123Z,18.03
2018-01-13T18:56:42.301Z,19.87
2018-01-13T18:59:10.478Z,15.17
2018-01-13T19:01:38.646Z,16.57
2018-01-13T19:04:06.825Z,18.60
2018-01-13T19:06:35.062Z,14.90
2018-01-13T19:09:03.249Z,15.93
2018-01-13T19:11:31.456Z,21.73
2018-01-13T19:13:59.666Z,16.40
2018-01-13T19:16:28.618Z,18.27
2018-01-13T19:18:56.837Z,19.10
2018-01-13T19:21:25.807Z,20.93
2018-01-13T19:23:54.011Z,19.93
2018-01-13T19:26:22.977Z,16.40
2018-01-13T19:28:51.191Z,15.37
2018-01-13T19:31:20.181Z,15.47
2018-01-13T19:33:49.127Z,16.73
2018-01-13T19:36:17.388Z,13.33
2018-01-13T19:38:45.631Z,14.40
2018-01-13T19:41:14.575Z,14.27
2018-01-13T19:43:42.785Z,12.37
2018-01-13T19:46:11.805Z,16.03
2018-01-13T19:48:39.992Z,15.50
2018-01-13T19:51:08.232Z,14.63
2018-01-13T19:53:37.194Z,13.70
2018-01-13T19:56:05.369Z,13.90
2018-01-13T19:58:33.538Z,14.70
2018-01-13T20:01:01.740Z,14.20
2018-01-13T20:03:30.725Z,14.27
2018-01-13T20:05:58.927Z,15.77
2018-01-13T20:08:27.910Z,15.83
2018-01-13T20:10:56.968Z,13.40
2018-01-13T20:13:25.174Z,16.73
2018-01-13T20:15:54.132Z,13.77
2018-01-13T20:18:22.308Z,18.30
2018-01-13T20:20:50.531Z,17.13
2018-01-13T20:23:19.529Z,15.70
2018-01-13T20:25:47.683Z,16.40
2018-01-13T20:28:16.632Z,16.00
2018-01-13T20:30:44.852Z,18.80
2018-01-13T20:33:13.866Z,14.20
2018-01-13T20:35:42.806Z,15.77
2018-01-13T20:38:10.991Z,14.30
2018-01-13T20:40:39.182Z,16.90
2018-01-13T20:43:07.367Z,13.73
2018-01-13T20:45:36.318Z,14.00
2018-01-13T20:48:04.623Z,14.27
2018-01-13T20:50:32.831Z,11.87
2018-01-13T20:53:01.108Z,16.03
2018-01-13T20:55:29.274Z,12.20
2018-01-13T20:57:58.218Z,16.70
2018-01-13T21:00:26.402Z,13.87
2018-01-13T21:02:54.612Z,10.13
2018-01-13T21:05:23.563Z,15.83
2018-01-13T21:07:51.777Z,12.93
2018-01-13T21:10:20.718Z,15.77
2018-01-13T21:12:48.901Z,17.63
2018-01-13T21:15:17.076Z,14.97
2018-01-13T21:17:45.268Z,16.37
2018-01-13T21:20:13.455Z,16.20
2018-01-13T21:22:41.693Z,15.80
2018-01-13T21:25:09.866Z,26.77
2018-01-13T21:27:38.045Z,19.93
2018-01-13T21:30:06.311Z,18.17
2018-01-13T21:32:34.514Z,29.97
2018-01-13T21:35:02.726Z,18.70
2018-01-13T21:37:31.678Z,13.70
2018-01-13T21:39:59.911Z,24.97
2018-01-13T21:42:28.094Z,14.53
2018-01-13T21:44:56.284Z,13.10
2018-01-13T21:47:24.564Z,14.60
2018-01-13T21:49:52.751Z,15.50
2018-01-13T21:52:20.943Z,15.67
2018-01-13T21:54:49.122Z,14.30
2018-01-13T21:57:17.358Z,14.07
2018-01-13T21:59:45.553Z,12.90
2018-01-13T22:02:13.753Z,12.80
2018-01-13T22:04:41.950Z,17.93
2018-01-13T22:07:11.020Z,13.67
2018-01-13T22:09:39.235Z,13.97
2018-01-13T22:12:07.419Z,13.07
2018-01-13T22:14:35.616Z,15.20
2018-01-13T22:17:03.870Z,17.97
2018-01-13T22:19:32.087Z,14.53
2018-01-13T22:22:00.277Z,11.37
2018-01-13T22:24:29.215Z,12.67
2018-01-13T22:26:57.396Z,13.80
2018-01-13T22:29:25.581Z,13.10
2018-01-13T22:31:53.758Z,13.27
2018-01-13T22:34:21.922Z,10.80
2018-01-13T22:36:50.079Z,13.90
2018-01-13T22:39:18.298Z,15.80
2018-01-13T22:41:46.467Z,12.97
2018-01-13T22:44:14.638Z,12.93
2018-01-13T22:46:42.805Z,26.93
2018-01-13T22:49:11.009Z,25.70
2018-01-13T22:51:39.177Z,20.33
2018-01-13T22:54:07.355Z,31.37
2018-01-13T22:56:35.551Z,14.13
2018-01-13T22:59:04.498Z,13.03
2018-01-13T23:01:33.470Z,15.23
2018-01-13T23:04:01.630Z,11.07
2018-01-13T23:06:29.803Z,11.80
2018-01-13T23:08:58.009Z,9.97
2018-01-13T23:11:26.167Z,10.40
2018-01-13T23:13:54.347Z,11.33
2018-01-13T23:16:22.502Z,11.73
2018-01-13T23:18:50.756Z,12.97
2018-01-13T23:21:18.915Z,10.73
2018-01-13T23:23:47.102Z,11.27
2018-01-13T23:26:16.043Z,11.93
2018-01-13T23:28:44.218Z,12.07
2018-01-13T23:31:12.380Z,12.60
2018-01-13T23:33:40.551Z,11.73
2018-01-13T23:36:08.709Z,10.73
2018-01-13T23:38:37.645Z,12.07
2018-01-13T23:41:05.814Z,11.80
2018-01-13T23:43:33.999Z,9.37
2018-01-13T23:46:02.158Z,12.27
2018-01-13T23:48:30.326Z,10.77
2018-01-13T23:50:58.506Z,9.93
2018-01-13T23:53:26.672Z,10.60
2018-01-13T23:55:55.785Z,9.77
2018-01-13T23:58:23.952Z,9.33
